sensor_id;sensor_type;location;lat;lon;timestamp;pressure;altitude;pressure_sealevel;temperature;humidity
75006;BME280;63553;51.814;4.600;2023-03-17T00:00:13;100858.63;;;14.23;53.65
75006;BME280;63553;51.814;4.600;2023-03-17T00:02:39;100858.63;;;14.23;53.53
75006;BME280;63553;51.814;4.600;2023-03-17T00:05:23;100853.03;;;14.23;53.57
75006;BME280;63553;51.814;4.600;2023-03-17T00:07:50;100845.34;;;14.20;53.41
75006;BME280;63553;51.814;4.600;2023-03-17T00:10:25;100844.66;;;14.23;53.54
75006;BME280;63553;51.814;4.600;2023-03-17T00:12:53;100848.25;;;14.23;53.74
75006;BME280;63553;51.814;4.600;2023-03-17T00:15:21;100849.78;;;14.21;53.70
75006;BME280;63553;51.814;4.600;2023-03-17T00:17:47;100836.16;;;14.19;53.78
75006;BME280;63553;51.814;4.600;2023-03-17T00:20:25;100843.03;;;14.22;53.89
75006;BME280;63553;51.814;4.600;2023-03-17T00:22:52;100846.97;;;14.21;53.95
75006;BME280;63553;51.814;4.600;2023-03-17T00:25:20;100851.44;;;14.22;53.77
75006;BME280;63553;51.814;4.600;2023-03-17T00:27:46;100844.53;;;14.19;53.61
75006;BME280;63553;51.814;4.600;2023-03-17T00:30:12;100847.34;;;14.19;53.56
75006;BME280;63553;51.814;4.600;2023-03-17T00:32:38;100847.69;;;14.18;53.82
75006;BME280;63553;51.814;4.600;2023-03-17T00:35:13;100844.88;;;14.18;53.69
75006;BME280;63553;51.814;4.600;2023-03-17T00:37:39;100836.84;;;14.16;53.71
75006;BME280;63553;51.814;4.600;2023-03-17T00:40:13;100828.78;;;14.15;53.62
75006;BME280;63553;51.814;4.600;2023-03-17T00:42:39;100821.56;;;14.14;53.99
75006;BME280;63553;51.814;4.600;2023-03-17T00:45:05;100827.16;;;14.14;53.79
75006;BME280;63553;51.814;4.600;2023-03-17T00:47:30;100821.56;;;14.14;53.75
75006;BME280;63553;51.814;4.600;2023-03-17T00:49:56;100814.00;;;14.14;53.76
75006;BME280;63553;51.814;4.600;2023-03-17T00:52:22;100819.44;;;14.11;53.58
75006;BME280;63553;51.814;4.600;2023-03-17T00:54:48;100829.34;;;14.08;53.73
75006;BME280;63553;51.814;4.600;2023-03-17T00:57:13;100839.38;;;14.09;53.28
75006;BME280;63553;51.814;4.600;2023-03-17T00:59:40;100845.44;;;14.11;53.57
75006;BME280;63553;51.814;4.600;2023-03-17T01:02:10;100840.66;;;14.12;53.34
75006;BME280;63553;51.814;4.600;2023-03-17T01:04:35;100846.25;;;14.12;53.57
75006;BME280;63553;51.814;4.600;2023-03-17T01:07:00;100824.59;;;14.09;53.60
75006;BME280;63553;51.814;4.600;2023-03-17T01:09:26;100828.34;;;14.13;53.89
75006;BME280;63553;51.814;4.600;2023-03-17T01:11:53;100831.47;;;14.11;53.48
75006;BME280;63553;51.814;4.600;2023-03-17T01:14:19;100829.16;;;14.13;53.58
75006;BME280;63553;51.814;4.600;2023-03-17T01:16:45;100829.47;;;14.12;53.61
75006;BME280;63553;51.814;4.600;2023-03-17T01:19:12;100829.16;;;14.13;53.46
75006;BME280;63553;51.814;4.600;2023-03-17T01:21:37;100820.28;;;14.11;53.74
75006;BME280;63553;51.814;4.600;2023-03-17T01:24:03;100819.00;;;14.09;54.02
75006;BME280;63553;51.814;4.600;2023-03-17T01:26:29;100829.03;;;14.10;53.82
75006;BME280;63553;51.814;4.600;2023-03-17T01:28:54;100820.28;;;14.11;53.66
75006;BME280;63553;51.814;4.600;2023-03-17T01:31:20;100826.22;;;14.10;53.84
75006;BME280;63553;51.814;4.600;2023-03-17T01:33:45;100818.16;;;14.08;53.74
75006;BME280;63553;51.814;4.600;2023-03-17T01:36:11;100804.69;;;14.10;53.80
75006;BME280;63553;51.814;4.600;2023-03-17T01:38:36;100805.00;;;14.09;53.76
75006;BME280;63553;51.814;4.600;2023-03-17T01:41:02;100799.88;;;14.11;53.68
75006;BME280;63553;51.814;4.600;2023-03-17T01:43:29;100799.41;;;14.09;53.85
75006;BME280;63553;51.814;4.600;2023-03-17T01:48:49;100790.91;;;14.05;53.99
75006;BME280;63553;51.814;4.600;2023-03-17T01:56:48;100795.69;;;14.05;53.75
75006;BME280;63553;51.814;4.600;2023-03-17T01:59:18;100788.47;;;14.04;54.00
75006;BME280;63553;51.814;4.600;2023-03-17T02:01:49;100787.28;;;14.05;53.90
75006;BME280;63553;51.814;4.600;2023-03-17T02:04:18;100785.31;;;14.05;54.04
75006;BME280;63553;51.814;4.600;2023-03-17T02:06:43;100781.38;;;14.06;54.13
75006;BME280;63553;51.814;4.600;2023-03-17T02:09:10;100776.59;;;14.07;54.04
75006;BME280;63553;51.814;4.600;2023-03-17T02:11:37;100786.13;;;14.06;54.35
75006;BME280;63553;51.814;4.600;2023-03-17T02:14:02;100772.53;;;14.04;53.94
75006;BME280;63553;51.814;4.600;2023-03-17T02:16:28;100779.38;;;14.07;54.09
75006;BME280;63553;51.814;4.600;2023-03-17T02:18:54;100774.50;;;14.04;54.06
75006;BME280;63553;51.814;4.600;2023-03-17T02:21:42;100762.94;;;14.05;54.14
75006;BME280;63553;51.814;4.600;2023-03-17T02:24:14;100771.69;;;14.04;54.34
75006;BME280;63553;51.814;4.600;2023-03-17T02:26:43;100773.31;;;14.05;54.39
75006;BME280;63553;51.814;4.600;2023-03-17T02:29:10;100774.94;;;14.06;54.25
75006;BME280;63553;51.814;4.600;2023-03-17T02:31:36;100766.22;;;14.07;54.28
75006;BME280;63553;51.814;4.600;2023-03-17T02:34:02;100757.72;;;14.04;54.15
75006;BME280;63553;51.814;4.600;2023-03-17T02:36:28;100770.19;;;14.06;54.61
75006;BME280;63553;51.814;4.600;2023-03-17T02:38:54;100767.72;;;14.05;55.12
75006;BME280;63553;51.814;4.600;2023-03-17T02:41:19;100777.88;;;14.09;54.73
75006;BME280;63553;51.814;4.600;2023-03-17T02:43:46;100786.38;;;14.13;55.21
75006;BME280;63553;51.814;4.600;2023-03-17T02:46:11;100772.75;;;14.11;54.79
75006;BME280;63553;51.814;4.600;2023-03-17T02:48:37;100775.22;;;14.13;54.71
75006;BME280;63553;51.814;4.600;2023-03-17T02:51:03;100782.41;;;14.14;54.58
75006;BME280;63553;51.814;4.600;2023-03-17T02:53:29;100773.22;;;14.13;54.74
75006;BME280;63553;51.814;4.600;2023-03-17T02:55:55;100766.81;;;14.13;54.97
75006;BME280;63553;51.814;4.600;2023-03-17T02:58:21;100767.97;;;14.12;54.86
75006;BME280;63553;51.814;4.600;2023-03-17T03:00:47;100761.22;;;14.13;54.91
75006;BME280;63553;51.814;4.600;2023-03-17T03:03:14;100761.09;;;14.09;54.67
75006;BME280;63553;51.814;4.600;2023-03-17T03:05:39;100770.78;;;14.12;54.53
75006;BME280;63553;51.814;4.600;2023-03-17T03:08:05;100769.50;;;14.09;54.60
75006;BME280;63553;51.814;4.600;2023-03-17T03:10:30;100779.84;;;14.09;55.36
75006;BME280;63553;51.814;4.600;2023-03-17T03:12:56;100788.69;;;14.11;55.15
75006;BME280;63553;51.814;4.600;2023-03-17T03:15:21;100778.34;;;14.11;55.27
75006;BME280;63553;51.814;4.600;2023-03-17T03:17:47;100775.22;;;14.13;54.79
75006;BME280;63553;51.814;4.600;2023-03-17T03:20:12;100769.63;;;14.13;54.91
75006;BME280;63553;51.814;4.600;2023-03-17T03:22:39;100775.22;;;14.13;54.71
75006;BME280;63553;51.814;4.600;2023-03-17T03:25:05;100778.69;;;14.10;55.20
75006;BME280;63553;51.814;4.600;2023-03-17T03:27:31;100784.41;;;14.13;55.42
75006;BME280;63553;51.814;4.600;2023-03-17T03:29:57;100784.75;;;14.12;55.08
75006;BME280;63553;51.814;4.600;2023-03-17T03:32:22;100792.31;;;14.11;55.51
75006;BME280;63553;51.814;4.600;2023-03-17T03:34:47;100789.66;;;14.15;55.65
75006;BME280;63553;51.814;4.600;2023-03-17T03:37:13;100796.88;;;14.16;55.76
75006;BME280;63553;51.814;4.600;2023-03-17T03:39:39;100804.09;;;14.17;56.03
75006;BME280;63553;51.814;4.600;2023-03-17T03:42:04;100794.53;;;14.18;55.74
75006;BME280;63553;51.814;4.600;2023-03-17T03:44:31;100797.81;;;14.20;55.94
75006;BME280;63553;51.814;4.600;2023-03-17T03:46:56;100806.56;;;14.18;56.39
75006;BME280;63553;51.814;4.600;2023-03-17T03:49:21;100803.06;;;14.21;56.01
75006;BME280;63553;51.814;4.600;2023-03-17T03:51:47;100815.06;;;14.22;56.26
75006;BME280;63553;51.814;4.600;2023-03-17T03:54:12;100805.50;;;14.23;56.68
75006;BME280;63553;51.814;4.600;2023-03-17T03:56:37;100813.88;;;14.23;56.57
75006;BME280;63553;51.814;4.600;2023-03-17T03:59:03;100812.28;;;14.22;56.48
75006;BME280;63553;51.814;4.600;2023-03-17T04:01:28;100813.06;;;14.22;56.21
75006;BME280;63553;51.814;4.600;2023-03-17T04:03:53;100809.81;;;14.20;56.45
75006;BME280;63553;51.814;4.600;2023-03-17T04:06:19;100812.28;;;14.22;56.87
75006;BME280;63553;51.814;4.600;2023-03-17T04:08:44;100821.13;;;14.24;56.82
75006;BME280;63553;51.814;4.600;2023-03-17T04:11:10;100819.16;;;14.24;56.76
75006;BME280;63553;51.814;4.600;2023-03-17T04:13:35;100805.03;;;14.21;57.30
75006;BME280;63553;51.814;4.600;2023-03-17T04:16:01;100807.13;;;14.24;57.09
75006;BME280;63553;51.814;4.600;2023-03-17T04:18:27;100803.53;;;14.23;57.53
75006;BME280;63553;51.814;4.600;2023-03-17T04:20:52;100802.69;;;14.23;57.04
75006;BME280;63553;51.814;4.600;2023-03-17T04:23:18;100800.38;;;14.25;57.21
75006;BME280;63553;51.814;4.600;2023-03-17T04:25:43;100800.38;;;14.25;57.67
75006;BME280;63553;51.814;4.600;2023-03-17T04:28:09;100805.50;;;14.23;57.86
75006;BME280;63553;51.814;4.600;2023-03-17T04:30:35;100811.22;;;14.26;57.95
75006;BME280;63553;51.814;4.600;2023-03-17T04:33:00;100800.38;;;14.25;57.89
75006;BME280;63553;51.814;4.600;2023-03-17T04:35:26;100805.63;;;14.26;57.70
75006;BME280;63553;51.814;4.600;2023-03-17T04:37:52;100815.53;;;14.24;57.96
75006;BME280;63553;51.814;4.600;2023-03-17T04:40:18;100820.44;;;14.27;58.24
75006;BME280;63553;51.814;4.600;2023-03-17T04:42:43;100807.59;;;14.26;58.31
75006;BME280;63553;51.814;4.600;2023-03-17T04:45:11;100809.28;;;14.39;60.35
75006;BME280;63553;51.814;4.600;2023-03-17T04:47:38;100808.34;;;14.47;61.49
75006;BME280;63553;51.814;4.600;2023-03-17T04:50:04;100813.63;;;14.49;61.16
75006;BME280;63553;51.814;4.600;2023-03-17T04:52:29;100814.88;;;14.51;60.71
75006;BME280;63553;51.814;4.600;2023-03-17T04:54:55;100818.59;;;14.55;60.22
75006;BME280;63553;51.814;4.600;2023-03-17T04:57:20;100803.34;;;14.53;59.99
75006;BME280;63553;51.814;4.600;2023-03-17T04:59:46;100794.47;;;14.51;59.73
75006;BME280;63553;51.814;4.600;2023-03-17T05:02:11;100777.56;;;14.47;59.36
75006;BME280;63553;51.814;4.600;2023-03-17T05:04:37;100780.25;;;14.43;58.99
75006;BME280;63553;51.814;4.600;2023-03-17T05:07:02;100777.44;;;14.43;59.27
75006;BME280;63553;51.814;4.600;2023-03-17T05:09:28;100764.53;;;14.39;58.93
75006;BME280;63553;51.814;4.600;2023-03-17T05:11:54;100767.91;;;14.32;58.66
75006;BME280;63553;51.814;4.600;2023-03-17T05:14:20;100758.19;;;14.30;58.81
75006;BME280;63553;51.814;4.600;2023-03-17T05:16:46;100769.72;;;14.28;58.32
75006;BME280;63553;51.814;4.600;2023-03-17T05:19:12;100766.84;;;14.25;58.27
75006;BME280;63553;51.814;4.600;2023-03-17T05:21:37;100774.41;;;14.24;58.18
75006;BME280;63553;51.814;4.600;2023-03-17T05:24:03;100773.13;;;14.22;57.99
75006;BME280;63553;51.814;4.600;2023-03-17T05:26:29;100777.91;;;14.21;58.35
75006;BME280;63553;51.814;4.600;2023-03-17T05:28:54;100786.28;;;14.21;58.17
75006;BME280;63553;51.814;4.600;2023-03-17T05:31:19;100784.31;;;14.22;58.67
75006;BME280;63553;51.814;4.600;2023-03-17T05:33:45;100785.91;;;14.23;58.50
75006;BME280;63553;51.814;4.600;2023-03-17T05:36:13;100780.00;;;14.24;57.90
75006;BME280;63553;51.814;4.600;2023-03-17T05:38:38;100785.59;;;14.24;58.11
75006;BME280;63553;51.814;4.600;2023-03-17T05:41:04;100774.72;;;14.23;57.96
75006;BME280;63553;51.814;4.600;2023-03-17T05:43:29;100761.81;;;14.18;57.79
75006;BME280;63553;51.814;4.600;2023-03-17T05:45:55;100772.16;;;14.18;57.67
75006;BME280;63553;51.814;4.600;2023-03-17T05:48:21;100775.78;;;14.18;57.69
75006;BME280;63553;51.814;4.600;2023-03-17T05:50:47;100773.00;;;14.18;57.63
75006;BME280;63553;51.814;4.600;2023-03-17T05:53:13;100768.91;;;14.16;57.62
75006;BME280;63553;51.814;4.600;2023-03-17T05:55:39;100767.28;;;14.15;57.38
75006;BME280;63553;51.814;4.600;2023-03-17T05:58:04;100780.56;;;14.18;58.03
75006;BME280;63553;51.814;4.600;2023-03-17T06:00:31;100767.41;;;14.18;57.70
75006;BME280;63553;51.814;4.600;2023-03-17T06:02:56;100762.97;;;14.17;57.87
75006;BME280;63553;51.814;4.600;2023-03-17T06:05:21;100776.13;;;14.17;58.04
75006;BME280;63553;51.814;4.600;2023-03-17T06:07:47;100766.13;;;14.16;57.95
75006;BME280;63553;51.814;4.600;2023-03-17T06:10:13;100755.75;;;14.16;57.40
75006;BME280;63553;51.814;4.600;2023-03-17T06:12:39;100783.34;;;14.18;57.64
75006;BME280;63553;51.814;4.600;2023-03-17T06:15:04;100783.25;;;14.26;59.60
75006;BME280;63553;51.814;4.600;2023-03-17T06:17:30;100783.28;;;14.38;60.57
75006;BME280;63553;51.814;4.600;2023-03-17T06:19:55;100794.81;;;14.49;61.17
75006;BME280;63553;51.814;4.600;2023-03-17T06:22:21;100796.22;;;14.55;61.47
75006;BME280;63553;51.814;4.600;2023-03-17T06:24:46;100806.59;;;10.26;57.52
75006;BME280;63553;51.814;4.600;2023-03-17T06:27:12;100809.34;;;9.65;59.62
75006;BME280;63553;51.814;4.600;2023-03-17T06:29:38;100804.66;;;9.52;60.67
75006;BME280;63553;51.814;4.600;2023-03-17T06:32:04;100797.41;;;9.42;61.19
75006;BME280;63553;51.814;4.600;2023-03-17T06:34:30;100798.94;;;9.48;60.74
75006;BME280;63553;51.814;4.600;2023-03-17T06:36:55;100791.50;;;9.35;60.96
75006;BME280;63553;51.814;4.600;2023-03-17T06:39:21;100782.81;;;9.50;60.62
75006;BME280;63553;51.814;4.600;2023-03-17T06:41:46;100772.38;;;9.33;60.86
75006;BME280;63553;51.814;4.600;2023-03-17T06:44:12;100785.72;;;9.54;61.26
75006;BME280;63553;51.814;4.600;2023-03-17T06:46:38;100788.06;;;9.60;60.25
75006;BME280;63553;51.814;4.600;2023-03-17T06:49:03;100796.63;;;9.72;60.47
75006;BME280;63553;51.814;4.600;2023-03-17T06:51:29;100803.94;;;9.68;60.79
75006;BME280;63553;51.814;4.600;2023-03-17T06:53:56;100802.09;;;9.55;61.34
75006;BME280;63553;51.814;4.600;2023-03-17T06:56:22;100796.63;;;9.72;61.06
75006;BME280;63553;51.814;4.600;2023-03-17T06:58:47;100790.03;;;9.60;61.03
75006;BME280;63553;51.814;4.600;2023-03-17T07:01:13;100792.78;;;9.60;60.79
75006;BME280;63553;51.814;4.600;2023-03-17T07:03:39;100796.44;;;9.69;61.22
75006;BME280;63553;51.814;4.600;2023-03-17T07:06:05;100802.44;;;9.84;61.18
75006;BME280;63553;51.814;4.600;2023-03-17T07:08:30;100813.63;;;9.71;60.63
75006;BME280;63553;51.814;4.600;2023-03-17T07:10:56;100798.47;;;9.77;60.50
75006;BME280;63553;51.814;4.600;2023-03-17T07:13:22;100792.69;;;9.65;60.59
75006;BME280;63553;51.814;4.600;2023-03-17T07:15:48;100792.16;;;9.85;59.73
75006;BME280;63553;51.814;4.600;2023-03-17T07:18:14;100786.38;;;10.03;60.04
75006;BME280;63553;51.814;4.600;2023-03-17T07:20:39;100776.34;;;9.94;59.71
75006;BME280;63553;51.814;4.600;2023-03-17T07:23:05;100769.00;;;9.98;59.45
75006;BME280;63553;51.814;4.600;2023-03-17T07:25:30;100778.63;;;10.23;60.17
75006;BME280;63553;51.814;4.600;2023-03-17T07:27:55;100791.19;;;10.68;60.37
75006;BME280;63553;51.814;4.600;2023-03-17T07:30:21;100801.84;;;10.92;57.59
75006;BME280;63553;51.814;4.600;2023-03-17T07:32:47;100803.00;;;11.16;57.62
75006;BME280;63553;51.814;4.600;2023-03-17T07:35:13;100793.84;;;11.25;56.89
75006;BME280;63553;51.814;4.600;2023-03-17T07:37:40;100796.56;;;11.93;55.31
75006;BME280;63553;51.814;4.600;2023-03-17T07:40:06;100808.59;;;12.81;56.07
75006;BME280;63553;51.814;4.600;2023-03-17T07:42:33;100801.22;;;13.06;52.69
75006;BME280;63553;51.814;4.600;2023-03-17T07:44:59;100803.06;;;13.44;50.11
75006;BME280;63553;51.814;4.600;2023-03-17T07:47:24;100817.31;;;14.53;48.86
75006;BME280;63553;51.814;4.600;2023-03-17T07:49:50;100812.63;;;15.05;47.94
75006;BME280;63553;51.814;4.600;2023-03-17T07:52:16;100800.84;;;15.39;47.10
75006;BME280;63553;51.814;4.600;2023-03-17T07:54:41;100796.16;;;15.03;46.78
75006;BME280;63553;51.814;4.600;2023-03-17T07:57:07;100799.25;;;14.86;46.44
75006;BME280;63553;51.814;4.600;2023-03-17T07:59:33;100790.97;;;15.70;45.03
75006;BME280;63553;51.814;4.600;2023-03-17T08:01:58;100781.63;;;16.40;44.16
75006;BME280;63553;51.814;4.600;2023-03-17T08:04:25;100797.75;;;16.75;43.71
75006;BME280;63553;51.814;4.600;2023-03-17T08:06:51;100799.47;;;16.48;42.72
75006;BME280;63553;51.814;4.600;2023-03-17T08:09:18;100797.78;;;16.94;43.44
75006;BME280;63553;51.814;4.600;2023-03-17T08:11:45;100795.03;;;17.51;41.67
75006;BME280;63553;51.814;4.600;2023-03-17T08:14:10;100799.31;;;17.07;42.22
75006;BME280;63553;51.814;4.600;2023-03-17T08:16:35;100799.91;;;16.50;43.13
75006;BME280;63553;51.814;4.600;2023-03-17T08:19:01;100803.97;;;16.52;43.49
75006;BME280;63553;51.814;4.600;2023-03-17T08:21:28;100803.69;;;16.10;43.81
75006;BME280;63553;51.814;4.600;2023-03-17T08:23:53;100804.03;;;15.93;44.00
75006;BME280;63553;51.814;4.600;2023-03-17T08:26:18;100800.03;;;15.39;45.62
75006;BME280;63553;51.814;4.600;2023-03-17T08:28:45;100800.63;;;15.32;46.04
75006;BME280;63553;51.814;4.600;2023-03-17T08:31:14;100802.22;;;15.85;46.17
75006;BME280;63553;51.814;4.600;2023-03-17T08:33:40;100801.25;;;16.09;44.93
75006;BME280;63553;51.814;4.600;2023-03-17T08:36:08;100807.41;;;16.46;44.48
75006;BME280;63553;51.814;4.600;2023-03-17T08:38:35;100812.22;;;16.45;45.27
75006;BME280;63553;51.814;4.600;2023-03-17T08:41:02;100807.50;;;16.34;44.98
75006;BME280;63553;51.814;4.600;2023-03-17T08:43:28;100806.22;;;16.00;45.82
75006;BME280;63553;51.814;4.600;2023-03-17T08:46:04;100815.06;;;15.59;46.84
75006;BME280;63553;51.814;4.600;2023-03-17T08:48:31;100808.47;;;15.27;47.59
75006;BME280;63553;51.814;4.600;2023-03-17T08:50:56;100812.19;;;15.43;46.76
75006;BME280;63553;51.814;4.600;2023-03-17T08:53:22;100820.56;;;15.55;46.75
75006;BME280;63553;51.814;4.600;2023-03-17T08:55:48;100813.91;;;16.03;47.46
75006;BME280;63553;51.814;4.600;2023-03-17T08:58:13;100824.97;;;16.90;46.46
75006;BME280;63553;51.814;4.600;2023-03-17T09:00:39;100831.06;;;16.60;46.64
75006;BME280;63553;51.814;4.600;2023-03-17T09:03:05;100816.78;;;16.65;45.09
75006;BME280;63553;51.814;4.600;2023-03-17T09:05:30;100831.47;;;15.72;46.21
75006;BME280;63553;51.814;4.600;2023-03-17T09:07:56;100827.16;;;16.49;45.76
75006;BME280;63553;51.814;4.600;2023-03-17T09:10:21;100829.38;;;15.97;45.86
75006;BME280;63553;51.814;4.600;2023-03-17T09:12:49;100842.56;;;14.32;49.44
75006;BME280;63553;51.814;4.600;2023-03-17T09:15:14;100843.91;;;14.59;48.94
75006;BME280;63553;51.814;4.600;2023-03-17T09:17:40;100848.41;;;14.27;49.36
75006;BME280;63553;51.814;4.600;2023-03-17T09:20:08;100851.03;;;14.11;50.66
75006;BME280;63553;51.814;4.600;2023-03-17T09:22:35;100836.56;;;14.54;49.58
75006;BME280;63553;51.814;4.600;2023-03-17T09:25:01;100837.47;;;15.07;49.13
75006;BME280;63553;51.814;4.600;2023-03-17T09:27:26;100845.81;;;16.89;46.44
75006;BME280;63553;51.814;4.600;2023-03-17T09:29:51;100842.72;;;16.94;45.21
75006;BME280;63553;51.814;4.600;2023-03-17T09:32:17;100841.78;;;17.40;49.80
75006;BME280;63553;51.814;4.600;2023-03-17T09:34:42;100848.47;;;17.70;47.40
75006;BME280;63553;51.814;4.600;2023-03-17T09:37:07;100843.09;;;17.62;45.72
75006;BME280;63553;51.814;4.600;2023-03-17T09:39:33;100846.16;;;17.03;44.69
75006;BME280;63553;51.814;4.600;2023-03-17T09:50:23;100879.72;;;17.85;43.21
75006;BME280;63553;51.814;4.600;2023-03-17T09:52:50;100869.44;;;17.92;42.50
75006;BME280;63553;51.814;4.600;2023-03-17T09:55:25;100876.06;;;18.22;46.05
75006;BME280;63553;51.814;4.600;2023-03-17T09:57:54;100892.03;;;17.96;49.37
75006;BME280;63553;51.814;4.600;2023-03-17T10:00:22;100879.59;;;17.77;43.45
75006;BME280;63553;51.814;4.600;2023-03-17T10:02:52;100881.69;;;17.46;51.65
75006;BME280;63553;51.814;4.600;2023-03-17T10:05:20;100890.28;;;17.02;48.70
75006;BME280;63553;51.814;4.600;2023-03-17T10:11:05;100886.63;;;16.39;58.98
75006;BME280;63553;51.814;4.600;2023-03-17T10:16:13;100888.56;;;16.66;54.61
75006;BME280;63553;51.814;4.600;2023-03-17T10:18:59;100882.06;;;16.19;53.01
75006;BME280;63553;51.814;4.600;2023-03-17T10:21:45;100890.75;;;15.86;50.92
75006;BME280;63553;51.814;4.600;2023-03-17T10:24:12;100896.72;;;15.85;52.37
75006;BME280;63553;51.814;4.600;2023-03-17T10:26:51;100895.75;;;15.93;51.44
75006;BME280;63553;51.814;4.600;2023-03-17T10:29:21;100894.75;;;15.85;53.55
75006;BME280;63553;51.814;4.600;2023-03-17T10:31:49;100888.44;;;15.88;54.42
75006;BME280;63553;51.814;4.600;2023-03-17T10:34:17;100886.63;;;15.96;57.79
75006;BME280;63553;51.814;4.600;2023-03-17T10:36:49;100877.88;;;15.97;51.41
75006;BME280;63553;51.814;4.600;2023-03-17T10:39:20;100879.50;;;16.57;62.89
75006;BME280;63553;51.814;4.600;2023-03-17T10:41:53;100860.38;;;16.32;52.41
75006;BME280;63553;51.814;4.600;2023-03-17T10:47:19;100877.59;;;15.35;52.16
75006;BME280;63553;51.814;4.600;2023-03-17T10:49:47;100867.72;;;15.53;57.70
75006;BME280;63553;51.814;4.600;2023-03-17T10:52:28;100860.81;;;16.18;66.84
75006;BME280;63553;51.814;4.600;2023-03-17T10:54:54;100850.84;;;16.99;65.80
75006;BME280;63553;51.814;4.600;2023-03-17T10:57:25;100838.56;;;16.72;55.07
75006;BME280;63553;51.814;4.600;2023-03-17T10:59:52;100837.22;;;17.16;65.18
75006;BME280;63553;51.814;4.600;2023-03-17T11:02:23;100834.28;;;16.94;58.55
75006;BME280;63553;51.814;4.600;2023-03-17T11:04:53;100833.41;;;16.43;51.71
75006;BME280;63553;51.814;4.600;2023-03-17T11:07:26;100839.69;;;16.67;53.45
75006;BME280;63553;51.814;4.600;2023-03-17T11:09:57;100836.97;;;17.21;58.09
75006;BME280;63553;51.814;4.600;2023-03-17T11:12:36;100828.25;;;17.46;62.52
75006;BME280;63553;51.814;4.600;2023-03-17T11:15:12;100825.91;;;17.67;61.75
75006;BME280;63553;51.814;4.600;2023-03-17T11:17:47;100831.09;;;17.84;60.04
75006;BME280;63553;51.814;4.600;2023-03-17T11:23:07;100834.31;;;17.48;57.91
75006;BME280;63553;51.814;4.600;2023-03-17T11:25:41;100824.41;;;17.54;58.91
75006;BME280;63553;51.814;4.600;2023-03-17T11:28:16;100831.44;;;17.44;52.66
75006;BME280;63553;51.814;4.600;2023-03-17T11:33:44;100825.16;;;17.89;57.36
75006;BME280;63553;51.814;4.600;2023-03-17T11:39:11;100803.09;;;17.91;52.92
75006;BME280;63553;51.814;4.600;2023-03-17T11:52:54;100803.06;;;16.95;51.99
75006;BME280;63553;51.814;4.600;2023-03-17T11:55:29;100814.28;;;16.95;51.94
75006;BME280;63553;51.814;4.600;2023-03-17T11:58:02;100804.41;;;17.20;53.37
75006;BME280;63553;51.814;4.600;2023-03-17T12:00:44;100794.41;;;17.04;52.75
75006;BME280;63553;51.814;4.600;2023-03-17T12:06:09;100793.81;;;17.68;70.26
75006;BME280;63553;51.814;4.600;2023-03-17T12:11:12;100822.59;;;18.68;94.69
75006;BME280;63553;51.814;4.600;2023-03-17T12:13:48;100828.72;;;19.52;98.18
75006;BME280;63553;51.814;4.600;2023-03-17T12:16:37;100820.63;;;19.24;92.82
75006;BME280;63553;51.814;4.600;2023-03-17T12:19:12;100819.88;;;19.27;75.41
75006;BME280;63553;51.814;4.600;2023-03-17T12:21:54;100813.72;;;19.18;65.32
75006;BME280;63553;51.814;4.600;2023-03-17T12:31:54;100812.25;;;19.28;71.60
75006;BME280;63553;51.814;4.600;2023-03-17T12:34:37;100833.97;;;19.27;71.36
75006;BME280;63553;51.814;4.600;2023-03-17T12:37:06;100830.31;;;19.23;70.52
75006;BME280;63553;51.814;4.600;2023-03-17T12:39:32;100834.66;;;19.17;69.58
75006;BME280;63553;51.814;4.600;2023-03-17T12:42:02;100832.59;;;19.14;69.03
75006;BME280;63553;51.814;4.600;2023-03-17T12:45:06;100821.69;;;19.13;70.45
75006;BME280;63553;51.814;4.600;2023-03-17T12:50:24;100816.31;;;19.04;73.00
75006;BME280;63553;51.814;4.600;2023-03-17T12:53:29;100814.97;;;18.95;72.87
75006;BME280;63553;51.814;4.600;2023-03-17T12:56:00;100816.53;;;18.92;72.63
75006;BME280;63553;51.814;4.600;2023-03-17T12:58:38;100814.47;;;18.89;72.85
75006;BME280;63553;51.814;4.600;2023-03-17T13:01:06;100814.06;;;18.87;72.36
75006;BME280;63553;51.814;4.600;2023-03-17T13:03:34;100804.72;;;18.83;70.19
75006;BME280;63553;51.814;4.600;2023-03-17T13:06:05;100805.94;;;18.82;72.37
75006;BME280;63553;51.814;4.600;2023-03-17T13:08:38;100803.06;;;18.78;72.70
75006;BME280;63553;51.814;4.600;2023-03-17T13:11:44;100811.44;;;18.75;74.56
75006;BME280;63553;51.814;4.600;2023-03-17T13:14:24;100806.16;;;18.70;72.18
75006;BME280;63553;51.814;4.600;2023-03-17T13:22:33;100776.69;;;18.64;76.08
75006;BME280;63553;51.814;4.600;2023-03-17T13:25:33;100776.22;;;18.62;76.06
75006;BME280;63553;51.814;4.600;2023-03-17T13:41:33;100749.22;;;18.57;77.04
75006;BME280;63553;51.814;4.600;2023-03-17T13:47:23;100756.66;;;18.46;74.13
75006;BME280;63553;51.814;4.600;2023-03-17T13:49:52;100749.38;;;18.45;75.96
75006;BME280;63553;51.814;4.600;2023-03-17T13:52:32;100750.97;;;18.43;78.07
75006;BME280;63553;51.814;4.600;2023-03-17T13:58:37;100746.41;;;18.12;61.11
75006;BME280;63553;51.814;4.600;2023-03-17T14:00:44;100740.00;;;17.50;52.72
75006;BME280;63553;51.814;4.600;2023-03-17T14:03:16;100731.69;;;17.76;56.79
75006;BME280;63553;51.814;4.600;2023-03-17T14:05:48;100737.56;;;17.91;60.23
75006;BME280;63553;51.814;4.600;2023-03-17T14:08:30;100735.50;;;17.88;53.77
75006;BME280;63553;51.814;4.600;2023-03-17T14:10:59;100728.66;;;18.08;58.57
75006;BME280;63553;51.814;4.600;2023-03-17T14:13:33;100728.91;;;18.22;59.42
75006;BME280;63553;51.814;4.600;2023-03-17T14:16:04;100724.81;;;17.97;56.21
75006;BME280;63553;51.814;4.600;2023-03-17T14:18:35;100714.63;;;17.66;53.58
75006;BME280;63553;51.814;4.600;2023-03-17T14:21:06;100714.63;;;17.47;52.27